LIBF/FOG METAR and TAF weather

Enter ICAO airport designator
Station Type Date Time Source
LIBF METAR 2022/01/27 14:50 UTC NOAA

LIBF 271450Z VRB01KT CAVOK 13/05 Q1025


Station Type Date Time Source
LIBF Decoded METAR 2022/01/27 14:50 UTC NOAA

Station name not available
Jan 27, 2022 - 09:50 AM EST / 2022.01.27 1450 UTC
Wind: Variable at 1 MPH (1 KT):0
Visibility: greater than 7 mile(s):0
Temperature: 55 F (13 C)
Dew Point: 41 F (5 C)
Relative Humidity: 58%
Pressure (altimeter): 30.27 in. Hg (1025 hPa)
ob: LIBF 271450Z VRB01KT CAVOK 13/05 Q1025
cycle: 15

Station Type Date Time Source
LIBF TAF 2022/01/27 12:00 UTC NOAA

TAF LIBF 271100Z 2712/2812 30010KT CAVOK
BECMG 2718/2720 VRB05KT

Example: see airport list